Harris, Missouri
Current Conditions -  °F | °C
As of 12:15 PM on Thursday 30 Oct 2014 (Local Time) from KTVK Reporting Station
Clear Clear  
Wind Chill: 55°   Ceiling: Unl
Heat Index: 55°   Visibility: 10mi
Dew Point: 39°   Wind: 5mph
Humidity: 54%   Direction: 150°SSE
Pressure: 30.02"   Gusts: NA
Location:  40.31°N, 93.35°W
Report Text: KTVK 301715Z AUTO 15004KT 10SM CLR 13/04 A3002 RMK AO2
Loading
Personal Weather Stations






























Interactive Weather Map
Tropical Storm Tracking
New forecast layout! Learn more

10-Day Weather Forecast

Advertisements
Track Severe Weather on mobile